Ana Sayfa
METAR-TAF:

METAR-TAF

Havaalanları :

Paulatuk, Kuzeybatı Bölgeleri, Kanada

Enlem: 69-21N, Boylam: 124-02W, yükseklik: 6 m

Güncel hava durumu gözlemi

Rapor saat 21:00 UTC de 37 dakika önce yapıldı.
Rüzgar kuzeydoğudan 13 kt
Sıcaklık 3°C
Nem 81%
Basınç 1024 hPa
Görüş mesafesi: 24.1 km
13000 ft yükseklikte az bulutlu

METAR: CYPC 202100Z 05013KT 15SM FEW130 03/M00 A3023 RMK AC1 AC TR WND ESTD SLP238

Saat: 15:37 (21:37 UTC)

Tahmin

Rapor saat 18:38 UTC de 2 saat ve 59 dakika önce yapıldı.
Ayın 20'si saat 19 UTC'den ayın 20'si saat 23 UTC'ye kadar geçerli Tahmin
Rüzgar kuzeydoğudan 15 kt
Görüş mesafesi: 10 km
10000 ft yükseklikte az bulutlu
22000 ft yükseklikte parçalı bulutlu

TAF: CYPC 201838Z 2019/2023 05015KT P6SM FEW100 SCT220 RMK NXT FCST WILL BE ISSUED AT 211445Z

4.000'den fazla havaalanı için hava durumu gözlemleri ve tahminleri (METAR ve TAF raporları).

Kullanılabilir istasyonlar harita üzerinde sarı ve kırmızı noktalarla gösterilir.

İstasyonun adını görmek için fareyi noktanın üzerinde gezdirin.

Sonrasında hava gözlem ve tahminlerini görmek için tıklayın.

Haritayı değiştirmek için: yaklaştırmak için siyah artı işaretli yeşil düğmeye ve uzaklaştırmak için de eksi işaretli düğmeye hızla tıklayın; bitişik haritalar için yeşil okları kullanın.


METAR-TAF: